Wetterdaten: aktuell Mittwoch, 23.01.2019 04:05
Datum Zeit Temp. A. Feuchte A. Luftdruck Regen Wind Richtung Richtung Taupunkt Windchill Windben
23.01.2019 04:05 -5,7 C 95 % 1000,8 hPa 0,0 l/m 0,7 km/h (0 Bft) SO 138 -6,4 C -5,7 C 14,5 km/h (3 Bft)
23.01.2019 04:00 -5,7 C 95 % 1000,9 hPa 0,0 l/m 0,0 km/h (0 Bft) O-SO 105 -6,4 C -5,7 C 0,0 km/h (0 Bft)
23.01.2019 03:55 -5,7 C 95 % 1000,9 hPa 0,0 l/m 0,0 km/h (0 Bft) O-SO 111 -6,4 C -5,7 C 0,0 km/h (0 Bft)
23.01.2019 03:50 -5,7 C 95 % 1001,0 hPa 0,0 l/m 0,0 km/h (0 Bft) O-SO 106 -6,4 C -5,7 C 0,0 km/h (0 Bft)
23.01.2019 03:45 -5,7 C 95 % 1001,2 hPa 0,0 l/m 0,0 km/h (0 Bft) SO 142 -6,4 C -5,7 C 0,0 km/h (0 Bft)
23.01.2019 03:40 -5,7 C 95 % 1001,3 hPa 0,0 l/m 0,0 km/h (0 Bft) O-SO 115 -6,4 C -5,7 C 0,0 km/h (0 Bft)
23.01.2019 03:35 -5,8 C 96 % 1001,4 hPa 0,0 l/m 0,0 km/h (0 Bft) SO 134 -6,3 C -5,8 C 0,0 km/h (0 Bft)
23.01.2019 03:30 -5,8 C 96 % 1001,4 hPa 0,0 l/m 0,0 km/h (0 Bft) SO 133 -6,3 C -5,8 C 1,6 km/h (1 Bft)
23.01.2019 03:25 -5,8 C 96 % 1001,5 hPa 0,0 l/m 0,7 km/h (0 Bft) O-SO 118 -6,3 C -5,8 C 12,9 km/h (3 Bft)
23.01.2019 03:20 -5,8 C 95 % 1001,6 hPa 0,0 l/m 0,8 km/h (0 Bft) SO 128 -6,5 C -5,8 C 16,1 km/h (3 Bft)
23.01.2019 03:15 -5,8 C 95 % 1001,7 hPa 0,0 l/m 0,2 km/h (0 Bft) S-SO 148 -6,5 C -5,8 C 12,9 km/h (3 Bft)
23.01.2019 03:10 -5,7 C 95 % 1001,7 hPa 0,0 l/m 0,0 km/h (0 Bft) S-SO 149 -6,4 C -5,7 C 0,0 km/h (0 Bft)
23.01.2019 03:05 -5,6 C 95 % 1001,8 hPa 0,0 l/m 2,0 km/h (1 Bft) SO 129 -6,3 C -5,6 C 17,7 km/h (3 Bft)
23.01.2019 03:00 -5,6 C 95 % 1001,9 hPa 0,0 l/m 0,4 km/h (0 Bft) SO 142 -6,3 C -5,6 C 11,3 km/h (2 Bft)
23.01.2019 02:55 -5,5 C 95 % 1002,0 hPa 0,0 l/m 0,7 km/h (0 Bft) SO 136 -6,2 C -5,5 C 14,5 km/h (3 Bft)
23.01.2019 02:50 -5,4 C 96 % 1002,1 hPa 0,0 l/m 0,0 km/h (0 Bft) SO 126 -5,9 C -5,4 C 0,0 km/h (0 Bft)
23.01.2019 02:45 -5,4 C 96 % 1002,2 hPa 0,0 l/m 0,0 km/h (0 Bft) O-SO 119 -5,9 C -5,4 C 0,0 km/h (0 Bft)
23.01.2019 02:40 -5,4 C 95 % 1002,2 hPa 0,0 l/m 0,6 km/h (0 Bft) O-SO 112 -6,1 C -5,4 C 14,5 km/h (3 Bft)
23.01.2019 02:35 -5,4 C 95 % 1002,4 hPa 0,0 l/m 0,8 km/h (0 Bft) O-SO 116 -6,1 C -5,4 C 16,1 km/h (3 Bft)
23.01.2019 02:30 -5,4 C 95 % 1002,4 hPa 0,0 l/m 0,2 km/h (0 Bft) SO 125 -6,1 C -5,4 C 6,4 km/h (2 Bft)
23.01.2019 02:25 -5,4 C 95 % 1002,5 hPa 0,0 l/m 0,0 km/h (0 Bft) S-SO 152 -6,1 C -5,4 C 0,0 km/h (0 Bft)
23.01.2019 02:20 -5,3 C 95 % 1002,4 hPa 0,0 l/m 0,0 km/h (0 Bft) S-SO 164 -6,0 C -5,3 C 0,0 km/h (0 Bft)
23.01.2019 02:15 -5,3 C 95 % 1002,5 hPa 0,0 l/m 0,0 km/h (0 Bft) O-SO 105 -6,0 C -5,3 C 0,0 km/h (0 Bft)
23.01.2019 02:10 -5,3 C 95 % 1002,4 hPa 0,0 l/m 0,0 km/h (0 Bft) O 95 -6,0 C -5,3 C 0,0 km/h (0 Bft)
23.01.2019 02:05 -5,3 C 95 % 1002,5 hPa 0,0 l/m 0,0 km/h (0 Bft) SO 130 -6,0 C -5,3 C 0,0 km/h (0 Bft)
23.01.2019 02:00 -5,3 C 95 % 1002,5 hPa 0,0 l/m 0,0 km/h (0 Bft) O-SO 117 -6,0 C -5,3 C 0,0 km/h (0 Bft)
23.01.2019 01:55 -5,3 C 96 % 1002,6 hPa 0,0 l/m 0,0 km/h (0 Bft) O 96 -5,8 C -5,3 C 0,0 km/h (0 Bft)
23.01.2019 01:50 -5,3 C 95 % 1002,6 hPa 0,0 l/m 1,3 km/h (1 Bft) O-SO 119 -6,0 C -5,3 C 20,9 km/h (4 Bft)
23.01.2019 01:45 -5,3 C 95 % 1002,8 hPa 0,0 l/m 0,0 km/h (0 Bft) O-SO 123 -6,0 C -5,3 C 0,0 km/h (0 Bft)
23.01.2019 01:40 -5,3 C 96 % 1002,8 hPa 0,0 l/m 0,0 km/h (0 Bft) O-SO 114 -5,8 C -5,3 C 0,0 km/h (0 Bft)
23.01.2019 01:35 -5,4 C 95 % 1002,9 hPa 0,0 l/m 0,0 km/h (0 Bft) SO 129 -6,1 C -5,4 C 0,0 km/h (0 Bft)
23.01.2019 01:30 -5,3 C 95 % 1002,9 hPa 0,0 l/m 0,0 km/h (0 Bft) O-SO 110 -6,0 C -5,3 C 0,0 km/h (0 Bft)
23.01.2019 01:25 -5,3 C 95 % 1002,9 hPa 0,0 l/m 0,3 km/h (0 Bft) O-SO 109 -6,0 C -5,3 C 12,9 km/h (3 Bft)
23.01.2019 01:20 -5,3 C 95 % 1002,9 hPa 0,0 l/m 2,9 km/h (1 Bft) SO 138 -6,0 C -5,3 C 16,1 km/h (3 Bft)
23.01.2019 01:15 -5,3 C 95 % 1003,0 hPa 0,0 l/m 1,3 km/h (1 Bft) SO 129 -6,0 C -5,3 C 17,7 km/h (3 Bft)
23.01.2019 01:10 -5,4 C 95 % 1003,1 hPa 0,0 l/m 0,4 km/h (0 Bft) O-SO 113 -6,1 C -5,4 C 14,5 km/h (3 Bft)
23.01.2019 01:05 -5,4 C 95 % 1003,2 hPa 0,0 l/m 3,9 km/h (1 Bft) SO 130 -6,1 C -5,4 C 17,7 km/h (3 Bft)
23.01.2019 01:00 -5,4 C 95 % 1003,3 hPa 0,0 l/m 1,1 km/h (1 Bft) SO 128 -6,1 C -5,4 C 14,5 km/h (3 Bft)
23.01.2019 00:55 -5,4 C 95 % 1003,3 hPa 0,0 l/m 2,0 km/h (1 Bft) SO 130 -6,1 C -5,4 C 16,1 km/h (3 Bft)
23.01.2019 00:50 -5,4 C 95 % 1003,4 hPa 0,0 l/m 2,4 km/h (1 Bft) SO 144 -6,1 C -5,4 C 16,1 km/h (3 Bft)
23.01.2019 00:45 -5,4 C 95 % 1003,4 hPa 0,0 l/m 6,4 km/h (2 Bft) SO 134 -6,1 C -5,3 C 22,5 km/h (4 Bft)
23.01.2019 00:40 -5,2 C 95 % 1003,4 hPa 0,0 l/m 5,6 km/h (2 Bft) SO 125 -5,9 C -5,2 C 20,9 km/h (4 Bft)
23.01.2019 00:35 -5,2 C 95 % 1003,5 hPa 0,0 l/m 5,2 km/h (1 Bft) O-SO 118 -5,9 C -5,2 C 19,3 km/h (3 Bft)
23.01.2019 00:30 -5,2 C 95 % 1003,6 hPa 0,0 l/m 2,1 km/h (1 Bft) SO 130 -5,9 C -5,2 C 19,3 km/h (3 Bft)
23.01.2019 00:25 -5,2 C 95 % 1003,7 hPa 0,0 l/m 0,3 km/h (0 Bft) O-SO 115 -5,9 C -5,2 C 11,3 km/h (2 Bft)
23.01.2019 00:20 -5,2 C 95 % 1003,7 hPa 0,0 l/m 2,2 km/h (1 Bft) SO 133 -5,9 C -5,2 C 19,3 km/h (3 Bft)
23.01.2019 00:15 -5,1 C 95 % 1003,8 hPa 0,0 l/m 2,1 km/h (1 Bft) SO 126 -5,8 C -5,1 C 16,1 km/h (3 Bft)
23.01.2019 00:10 -5,1 C 95 % 1003,8 hPa 0,0 l/m 3,0 km/h (1 Bft) O-SO 120 -5,8 C -5,1 C 19,3 km/h (3 Bft)
23.01.2019 00:05 -5,1 C 95 % 1003,9 hPa 0,0 l/m 0,9 km/h (0 Bft) O-SO 117 -5,8 C -5,1 C 14,5 km/h (3 Bft)
23.01.2019 00:00 -5,1 C 95 % 1003,9 hPa 0,0 l/m 0,4 km/h (0 Bft) O-SO 113 -5,8 C -5,1 C 12,9 km/h (3 Bft)
22.01.2019 23:55 -5,1 C 95 % 1003,9 hPa 0,0 l/m 2,8 km/h (1 Bft) O-SO 109 -5,8 C -5,1 C 19,3 km/h (3 Bft)
22.01.2019 23:50 -5,1 C 95 % 1004,1 hPa 0,0 l/m 0,4 km/h (0 Bft) SO 126 -5,8 C -5,1 C 12,9 km/h (3 Bft)
22.01.2019 23:45 -5,1 C 95 % 1004,1 hPa 0,0 l/m 0,6 km/h (0 Bft) O-SO 115 -5,8 C -5,1 C 16,1 km/h (3 Bft)
22.01.2019 23:40 -5,1 C 95 % 1004,1 hPa 0,0 l/m 0,5 km/h (0 Bft) O-SO 121 -5,8 C -5,1 C 16,1 km/h (3 Bft)
22.01.2019 23:35 -5,1 C 95 % 1004,2 hPa 0,0 l/m 5,0 km/h (1 Bft) O-SO 113 -5,8 C -5,1 C 16,1 km/h (3 Bft)
22.01.2019 23:30 -5,1 C 95 % 1004,2 hPa 0,0 l/m 4,5 km/h (1 Bft) SO 140 -5,8 C -5,1 C 20,9 km/h (4 Bft)
22.01.2019 23:25 -5,1 C 95 % 1004,3 hPa 0,0 l/m 5,6 km/h (2 Bft) SO 126 -5,8 C -5,1 C 19,3 km/h (3 Bft)
22.01.2019 23:20 -5,1 C 95 % 1004,3 hPa 0,0 l/m 2,3 km/h (1 Bft) O-SO 109 -5,8 C -5,1 C 16,1 km/h (3 Bft)
22.01.2019 23:15 -5,1 C 95 % 1004,4 hPa 0,0 l/m 2,2 km/h (1 Bft) O-SO 109 -5,8 C -5,1 C 19,3 km/h (3 Bft)
22.01.2019 23:10 -5,1 C 94 % 1004,3 hPa 0,0 l/m 2,8 km/h (1 Bft) O-SO 118 -5,9 C -5,1 C 17,7 km/h (3 Bft)
22.01.2019 23:05 -5,1 C 95 % 1004,3 hPa 0,0 l/m 3,6 km/h (1 Bft) O-SO 109 -5,8 C -5,1 C 20,9 km/h (4 Bft)
22.01.2019 23:00 -5,0 C 95 % 1004,4 hPa 0,0 l/m 14,8 km/h (3 Bft) SO 140 -5,7 C -12,9 C 22,5 km/h (4 Bft)
22.01.2019 22:55 -5,0 C 95 % 1004,5 hPa 0,0 l/m 13,0 km/h (3 Bft) O-SO 114 -5,7 C -11,6 C 19,3 km/h (3 Bft)
22.01.2019 22:50 -5,0 C 95 % 1004,5 hPa 0,0 l/m 9,5 km/h (2 Bft) O-SO 109 -5,7 C -8,5 C 14,5 km/h (3 Bft)
22.01.2019 22:45 -5,0 C 95 % 1004,5 hPa 0,0 l/m 4,4 km/h (1 Bft) O-SO 112 -5,7 C -5,0 C 16,1 km/h (3 Bft)
22.01.2019 22:40 -5,0 C 95 % 1004,6 hPa 0,0 l/m 0,0 km/h (0 Bft) O-SO 109 -5,7 C -5,0 C 1,6 km/h (1 Bft)
22.01.2019 22:35 -5,0 C 95 % 1004,7 hPa 0,0 l/m 0,0 km/h (0 Bft) O-SO 111 -5,7 C -5,0 C 0,0 km/h (0 Bft)
22.01.2019 22:30 -5,0 C 95 % 1004,7 hPa 0,0 l/m 0,0 km/h (0 Bft) O-SO 104 -5,7 C -5,0 C 0,0 km/h (0 Bft)
22.01.2019 22:25 -5,0 C 95 % 1004,7 hPa 0,0 l/m 0,0 km/h (0 Bft) O 101 -5,7 C -5,0 C 0,0 km/h (0 Bft)
22.01.2019 22:20 -5,0 C 94 % 1004,8 hPa 0,0 l/m 0,0 km/h (0 Bft) O 101 -5,8 C -5,0 C 0,0 km/h (0 Bft)
22.01.2019 22:15 -5,0 C 94 % 1004,9 hPa 0,0 l/m 9,1 km/h (2 Bft) O-SO 107 -5,8 C -8,1 C 16,1 km/h (3 Bft)
22.01.2019 22:10 -5,0 C 94 % 1004,9 hPa 0,0 l/m 14,5 km/h (3 Bft) SO 136 -5,8 C -12,7 C 19,3 km/h (3 Bft)
22.01.2019 22:05 -5,0 C 94 % 1004,9 hPa 0,0 l/m 15,0 km/h (3 Bft) O-SO 102 -5,8 C -13,0 C 19,3 km/h (3 Bft)
22.01.2019 22:00 -4,9 C 94 % 1005,0 hPa 0,0 l/m 18,5 km/h (3 Bft) O-SO 119 -5,7 C -15,1 C 25,7 km/h (4 Bft)
22.01.2019 21:55 -4,9 C 94 % 1005,0 hPa 0,0 l/m 18,7 km/h (3 Bft) O-SO 111 -5,7 C -15,2 C 22,5 km/h (4 Bft)
22.01.2019 21:50 -4,9 C 94 % 1005,1 hPa 0,0 l/m 8,4 km/h (2 Bft) O-SO 104 -5,7 C -7,2 C 20,9 km/h (4 Bft)
22.01.2019 21:45 -4,8 C 94 % 1005,2 hPa 0,0 l/m 10,4 km/h (2 Bft) O 97 -5,6 C -9,1 C 22,5 km/h (4 Bft)
22.01.2019 21:40 -4,8 C 94 % 1005,2 hPa 0,0 l/m 15,3 km/h (3 Bft) O-SO 115 -5,6 C -13,0 C 19,3 km/h (3 Bft)
22.01.2019 21:35 -4,8 C 94 % 1005,3 hPa 0,0 l/m 15,6 km/h (3 Bft) O-SO 105 -5,6 C -13,2 C 20,9 km/h (4 Bft)
22.01.2019 21:30 -4,7 C 94 % 1005,2 hPa 0,0 l/m 18,1 km/h (3 Bft) O 101 -5,5 C -14,6 C 22,5 km/h (4 Bft)
22.01.2019 21:25 -4,7 C 94 % 1005,2 hPa 0,0 l/m 16,0 km/h (3 Bft) O-SO 104 -5,5 C -13,3 C 19,3 km/h (3 Bft)
22.01.2019 21:20 -4,6 C 94 % 1005,3 hPa 0,0 l/m 15,3 km/h (3 Bft) O 95 -5,4 C -12,8 C 19,3 km/h (3 Bft)
22.01.2019 21:15 -4,6 C 94 % 1005,4 hPa 0,0 l/m 14,9 km/h (3 Bft) O-SO 109 -5,4 C -12,5 C 19,3 km/h (3 Bft)
22.01.2019 21:10 -4,6 C 94 % 1005,4 hPa 0,0 l/m 14,9 km/h (3 Bft) O-SO 103 -5,4 C -12,5 C 19,3 km/h (3 Bft)
22.01.2019 21:05 -4,6 C 94 % 1005,5 hPa 0,0 l/m 13,8 km/h (3 Bft) O-SO 111 -5,4 C -11,7 C 17,7 km/h (3 Bft)
22.01.2019 21:00 -4,5 C 94 % 1005,5 hPa 0,0 l/m 16,0 km/h (3 Bft) O-SO 114 -5,3 C -13,1 C 19,3 km/h (3 Bft)
22.01.2019 20:55 -4,4 C 94 % 1005,6 hPa 0,0 l/m 17,2 km/h (3 Bft) O-SO 109 -5,2 C -13,7 C 20,9 km/h (4 Bft)
22.01.2019 20:50 -4,4 C 94 % 1005,6 hPa 0,0 l/m 17,3 km/h (3 Bft) O-SO 111 -5,2 C -13,8 C 20,9 km/h (4 Bft)
22.01.2019 20:45 -4,4 C 94 % 1005,6 hPa 0,0 l/m 17,0 km/h (3 Bft) O 90 -5,2 C -13,6 C 20,9 km/h (4 Bft)
22.01.2019 20:40 -4,3 C 94 % 1005,6 hPa 0,0 l/m 18,8 km/h (3 Bft) O-SO 104 -5,1 C -14,5 C 24,1 km/h (4 Bft)
22.01.2019 20:35 -4,3 C 94 % 1005,7 hPa 0,0 l/m 18,9 km/h (3 Bft) O 93 -5,1 C -14,6 C 22,5 km/h (4 Bft)
22.01.2019 20:30 -4,3 C 94 % 1005,8 hPa 0,0 l/m 19,7 km/h (3 Bft) O 90 -5,1 C -15,0 C 24,1 km/h (4 Bft)
22.01.2019 20:25 -4,2 C 94 % 1005,8 hPa 0,0 l/m 17,1 km/h (3 Bft) O 96 -5,0 C -13,4 C 24,1 km/h (4 Bft)
22.01.2019 20:20 -4,2 C 94 % 1005,8 hPa 0,0 l/m 18,4 km/h (3 Bft) O 99 -5,0 C -14,2 C 22,5 km/h (4 Bft)
22.01.2019 20:15 -4,2 C 94 % 1005,8 hPa 0,0 l/m 17,7 km/h (3 Bft) O-SO 103 -5,0 C -13,8 C 24,1 km/h (4 Bft)
22.01.2019 20:10 -4,2 C 94 % 1005,8 hPa 0,0 l/m 18,2 km/h (3 Bft) O 94 -5,0 C -14,1 C 22,5 km/h (4 Bft)
22.01.2019 20:05 -4,2 C 94 % 1005,9 hPa 0,0 l/m 15,9 km/h (3 Bft) O-SO 115 -5,0 C -12,7 C 19,3 km/h (3 Bft)
22.01.2019 20:00 -4,2 C 94 % 1005,9 hPa 0,0 l/m 14,6 km/h (3 Bft) O-SO 103 -5,0 C -11,8 C 19,3 km/h (3 Bft)
22.01.2019 19:55 -4,2 C 94 % 1006,0 hPa 0,0 l/m 12,1 km/h (2 Bft) SO 125 -5,0 C -9,9 C 19,3 km/h (3 Bft)
22.01.2019 19:50 -4,2 C 94 % 1006,0 hPa 0,0 l/m 15,7 km/h (3 Bft) O-SO 120 -5,0 C -12,5 C 20,9 km/h (4 Bft)
22.01.2019 19:45 -4,2 C 94 % 1006,1 hPa 0,0 l/m 15,9 km/h (3 Bft) O-SO 111 -5,0 C -12,7 C 20,9 km/h (4 Bft)
22.01.2019 19:40 -4,2 C 94 % 1006,1 hPa 0,0 l/m 17,6 km/h (3 Bft) O 101 -5,0 C -13,7 C 24,1 km/h (4 Bft)
22.01.2019 19:35 -4,1 C 94 % 1006,2 hPa 0,0 l/m 17,9 km/h (3 Bft) O 100 -4,9 C -13,8 C 22,5 km/h (4 Bft)
22.01.2019 19:30 -4,1 C 94 % 1006,2 hPa 0,0 l/m 16,1 km/h (3 Bft) O 101 -4,9 C -12,7 C 19,3 km/h (3 Bft)
22.01.2019 19:25 -4,2 C 94 % 1006,3 hPa 0,0 l/m 14,7 km/h (3 Bft) O-SO 111 -5,0 C -11,9 C 19,3 km/h (3 Bft)
22.01.2019 19:20 -4,2 C 94 % 1006,4 hPa 0,0 l/m 12,8 km/h (3 Bft) O 96 -5,0 C -10,5 C 16,1 km/h (3 Bft)
22.01.2019 19:15 -4,2 C 94 % 1006,4 hPa 0,0 l/m 12,7 km/h (3 Bft) O-SO 106 -5,0 C -10,4 C 17,7 km/h (3 Bft)
22.01.2019 19:10 -4,2 C 94 % 1006,5 hPa 0,0 l/m 10,3 km/h (2 Bft) O-SO 116 -5,0 C -8,4 C 16,1 km/h (3 Bft)
22.01.2019 19:05 -4,2 C 94 % 1006,5 hPa 0,0 l/m 12,5 km/h (2 Bft) O-SO 112 -5,0 C -10,2 C 17,7 km/h (3 Bft)
22.01.2019 19:00 -4,2 C 94 % 1006,5 hPa 0,0 l/m 12,0 km/h (2 Bft) O-SO 105 -5,0 C -9,8 C 14,5 km/h (3 Bft)
22.01.2019 18:55 -4,2 C 94 % 1006,6 hPa 0,0 l/m 11,6 km/h (2 Bft) O 98 -5,0 C -9,5 C 14,5 km/h (3 Bft)
22.01.2019 18:50 -4,2 C 94 % 1006,7 hPa 0,0 l/m 13,5 km/h (3 Bft) SO 124 -5,0 C -11,0 C 19,3 km/h (3 Bft)
22.01.2019 18:45 -4,2 C 94 % 1006,7 hPa 0,0 l/m 13,2 km/h (3 Bft) SO 125 -5,0 C -10,8 C 20,9 km/h (4 Bft)
22.01.2019 18:40 -4,2 C 95 % 1006,8 hPa 0,0 l/m 11,2 km/h (2 Bft) O-SO 112 -4,9 C -9,2 C 16,1 km/h (3 Bft)
22.01.2019 18:35 -4,2 C 95 % 1006,9 hPa 0,0 l/m 12,1 km/h (2 Bft) O-SO 121 -4,9 C -9,9 C 16,1 km/h (3 Bft)
22.01.2019 18:30 -4,2 C 95 % 1006,9 hPa 0,0 l/m 15,0 km/h (3 Bft) O-SO 103 -4,9 C -12,1 C 17,7 km/h (3 Bft)
22.01.2019 18:25 -4,2 C 95 % 1007,0 hPa 0,0 l/m 5,8 km/h (2 Bft) O 100 -4,9 C -4,2 C 16,1 km/h (3 Bft)
22.01.2019 18:20 -4,2 C 95 % 1007,0 hPa 0,0 l/m 0,7 km/h (0 Bft) O-SO 103 -4,9 C -4,2 C 9,7 km/h (2 Bft)
22.01.2019 18:15 -4,2 C 95 % 1007,1 hPa 0,0 l/m 3,5 km/h (1 Bft) O-SO 121 -4,9 C -4,2 C 14,5 km/h (3 Bft)
22.01.2019 18:10 -4,2 C 95 % 1007,1 hPa 0,0 l/m 9,6 km/h (2 Bft) O-SO 105 -4,9 C -7,7 C 14,5 km/h (3 Bft)
22.01.2019 18:05 -4,2 C 95 % 1007,2 hPa 0,0 l/m 11,5 km/h (2 Bft) O-SO 117 -4,9 C -9,4 C 17,7 km/h (3 Bft)
22.01.2019 18:00 -4,2 C 94 % 1007,3 hPa 0,0 l/m 0,0 km/h (0 Bft) O-SO 117 -5,0 C -4,2 C 0,0 km/h (0 Bft)
22.01.2019 17:55 -4,2 C 94 % 1007,3 hPa 0,0 l/m 7,1 km/h (2 Bft) SO 125 -5,0 C -5,0 C 11,3 km/h (2 Bft)
22.01.2019 17:50 -4,3 C 94 % 1007,3 hPa 0,0 l/m 10,3 km/h (2 Bft) SO 128 -5,1 C -8,5 C 14,5 km/h (3 Bft)
22.01.2019 17:45 -4,2 C 94 % 1007,4 hPa 0,0 l/m 13,1 km/h (3 Bft) O-SO 120 -5,0 C -10,7 C 17,7 km/h (3 Bft)
22.01.2019 17:40 -4,2 C 94 % 1007,5 hPa 0,0 l/m 12,8 km/h (3 Bft) SO 129 -5,0 C -10,5 C 17,7 km/h (3 Bft)
22.01.2019 17:35 -4,2 C 94 % 1007,5 hPa 0,0 l/m 14,5 km/h (3 Bft) SO 126 -5,0 C -11,7 C 19,3 km/h (3 Bft)
22.01.2019 17:30 -4,1 C 94 % 1007,6 hPa 0,0 l/m 15,9 km/h (3 Bft) O-SO 120 -4,9 C -12,5 C 22,5 km/h (4 Bft)
22.01.2019 17:25 -4,1 C 94 % 1007,6 hPa 0,0 l/m 12,7 km/h (3 Bft) O-SO 104 -4,9 C -10,3 C 20,9 km/h (4 Bft)
22.01.2019 17:20 -4,0 C 94 % 1007,7 hPa 0,0 l/m 10,2 km/h (2 Bft) O 92 -4,8 C -8,1 C 20,9 km/h (4 Bft)
22.01.2019 17:15 -4,0 C 94 % 1007,8 hPa 0,0 l/m 13,1 km/h (3 Bft) O 88 -4,8 C -10,5 C 16,1 km/h (3 Bft)
22.01.2019 17:10 -3,9 C 94 % 1007,8 hPa 0,0 l/m 12,3 km/h (2 Bft) O 99 -4,7 C -9,7 C 16,1 km/h (3 Bft)
22.01.2019 17:05 -3,9 C 94 % 1007,9 hPa 0,0 l/m 15,9 km/h (3 Bft) O-SO 115 -4,7 C -12,3 C 20,9 km/h (4 Bft)
22.01.2019 17:00 -3,8 C 94 % 1007,9 hPa 0,0 l/m 13,4 km/h (3 Bft) O 97 -4,6 C -10,5 C 17,7 km/h (3 Bft)
22.01.2019 16:55 -3,8 C 94 % 1008,0 hPa 0,0 l/m 13,9 km/h (3 Bft) O 88 -4,6 C -10,8 C 17,7 km/h (3 Bft)
22.01.2019 16:50 -3,8 C 94 % 1008,0 hPa 0,0 l/m 12,4 km/h (2 Bft) O 91 -4,6 C -9,7 C 16,1 km/h (3 Bft)
22.01.2019 16:45 -3,7 C 94 % 1008,0 hPa 0,0 l/m 0,0 km/h (0 Bft) O-SO 103 -4,5 C -3,7 C 0,0 km/h (0 Bft)
22.01.2019 16:40 -3,7 C 94 % 1008,1 hPa 0,0 l/m 0,0 km/h (0 Bft) O 101 -4,5 C -3,7 C 0,0 km/h (0 Bft)
22.01.2019 16:35 -3,6 C 94 % 1008,1 hPa 0,0 l/m 0,0 km/h (0 Bft) O 98 -4,4 C -3,6 C 0,0 km/h (0 Bft)
22.01.2019 16:30 -3,6 C 94 % 1008,2 hPa 0,0 l/m 0,0 km/h (0 Bft) O-SO 108 -4,4 C -3,6 C 0,0 km/h (0 Bft)
22.01.2019 16:25 -3,5 C 94 % 1008,2 hPa 0,0 l/m 0,0 km/h (0 Bft) O 95 -4,3 C -3,5 C 0,0 km/h (0 Bft)
22.01.2019 16:20 -3,4 C 94 % 1008,3 hPa 0,0 l/m 0,0 km/h (0 Bft) O-SO 105 -4,2 C -3,4 C 0,0 km/h (0 Bft)
22.01.2019 16:15 -3,4 C 94 % 1008,3 hPa 0,0 l/m 7,4 km/h (2 Bft) O 97 -4,2 C -4,5 C 17,7 km/h (3 Bft)
22.01.2019 16:10 -3,4 C 94 % 1008,4 hPa 0,0 l/m 13,0 km/h (3 Bft) O-SO 117 -4,2 C -9,7 C 16,1 km/h (3 Bft)
22.01.2019 16:05 -3,4 C 94 % 1008,5 hPa 0,0 l/m 1,5 km/h (1 Bft) O 101 -4,2 C -3,4 C 17,7 km/h (3 Bft)
22.01.2019 16:00 -3,4 C 94 % 1008,5 hPa 0,0 l/m 0,0 km/h (0 Bft) SO 138 -4,2 C -3,4 C 1,6 km/h (1 Bft)
22.01.2019 15:55 -3,4 C 94 % 1008,5 hPa 0,0 l/m 0,0 km/h (0 Bft) O-SO 103 -4,2 C -3,4 C 0,0 km/h (0 Bft)
22.01.2019 15:50 -3,4 C 94 % 1008,6 hPa 0,0 l/m 0,8 km/h (0 Bft) O 101 -4,2 C -3,4 C 14,5 km/h (3 Bft)
22.01.2019 15:45 -3,4 C 94 % 1008,6 hPa 0,0 l/m 0,0 km/h (0 Bft) O-SO 106 -4,2 C -3,4 C 1,6 km/h (1 Bft)
22.01.2019 15:40 -3,4 C 94 % 1008,7 hPa 0,0 l/m 0,0 km/h (0 Bft) O-SO 123 -4,2 C -3,4 C 0,0 km/h (0 Bft)
22.01.2019 15:35 -3,5 C 94 % 1008,8 hPa 0,0 l/m 1,8 km/h (1 Bft) SO 130 -4,3 C -3,5 C 12,9 km/h (3 Bft)
22.01.2019 15:30 -3,5 C 93 % 1008,8 hPa 0,0 l/m 0,6 km/h (0 Bft) SO 134 -4,5 C -3,5 C 16,1 km/h (3 Bft)
22.01.2019 15:25 -3,4 C 93 % 1008,9 hPa 0,0 l/m 0,0 km/h (0 Bft) S-SO 149 -4,4 C -3,4 C 0,0 km/h (0 Bft)
22.01.2019 15:20 -3,4 C 93 % 1008,9 hPa 0,0 l/m 0,0 km/h (0 Bft) S 171 -4,4 C -3,4 C 0,0 km/h (0 Bft)
22.01.2019 15:15 -3,4 C 93 % 1009,0 hPa 0,0 l/m 1,3 km/h (1 Bft) SO 145 -4,4 C -3,4 C 11,3 km/h (2 Bft)
22.01.2019 15:10 -3,3 C 93 % 1009,0 hPa 0,0 l/m 0,0 km/h (0 Bft) S-SO 158 -4,3 C -3,3 C 1,6 km/h (1 Bft)
22.01.2019 15:05 -3,3 C 93 % 1009,1 hPa 0,0 l/m 0,0 km/h (0 Bft) S-SO 157 -4,3 C -3,3 C 1,6 km/h (1 Bft)
22.01.2019 15:00 -3,2 C 93 % 1009,1 hPa 0,0 l/m 0,3 km/h (0 Bft) S-SO 161 -4,2 C -3,2 C 11,3 km/h (2 Bft)
22.01.2019 14:55 -3,1 C 92 % 1009,2 hPa 0,0 l/m 5,3 km/h (1 Bft) SO 144 -4,2 C -3,1 C 16,1 km/h (3 Bft)
22.01.2019 14:50 -3,1 C 93 % 1009,2 hPa 0,0 l/m 0,0 km/h (0 Bft) S-SO 151 -4,1 C -3,1 C 0,0 km/h (0 Bft)
22.01.2019 14:45 -3,1 C 92 % 1009,4 hPa 0,0 l/m 0,0 km/h (0 Bft) S-SO 149 -4,2 C -3,1 C 0,0 km/h (0 Bft)
22.01.2019 14:40 -3,2 C 92 % 1009,4 hPa 0,0 l/m 0,8 km/h (0 Bft) S 177 -4,3 C -3,2 C 9,7 km/h (2 Bft)
22.01.2019 14:35 -3,2 C 92 % 1009,6 hPa 0,0 l/m 0,0 km/h (0 Bft) S-SO 167 -4,3 C -3,2 C 0,0 km/h (0 Bft)
22.01.2019 14:30 -3,1 C 92 % 1009,7 hPa 0,0 l/m 1,2 km/h (1 Bft) S-SO 161 -4,2 C -3,1 C 16,1 km/h (3 Bft)
22.01.2019 14:25 -3,1 C 92 % 1009,8 hPa 0,0 l/m 8,8 km/h (2 Bft) S-SO 160 -4,2 C -5,7 C 16,1 km/h (3 Bft)
22.01.2019 14:20 -2,9 C 92 % 1009,9 hPa 0,0 l/m 0,8 km/h (0 Bft) SO 140 -4,0 C -2,9 C 17,7 km/h (3 Bft)
22.01.2019 14:15 -2,9 C 92 % 1010,0 hPa 0,0 l/m 1,8 km/h (1 Bft) SO 139 -4,0 C -2,9 C 16,1 km/h (3 Bft)
22.01.2019 14:10 -2,9 C 92 % 1010,1 hPa 0,0 l/m 0,0 km/h (0 Bft) SO 128 -4,0 C -2,9 C 1,6 km/h (1 Bft)
22.01.2019 14:05 -2,9 C 92 % 1010,2 hPa 0,0 l/m 9,0 km/h (2 Bft) O-SO 117 -4,0 C -5,7 C 20,9 km/h (4 Bft)
22.01.2019 14:00 -3,0 C 92 % 1010,2 hPa 0,0 l/m 3,5 km/h (1 Bft) O-SO 113 -4,1 C -3,0 C 14,5 km/h (3 Bft)
22.01.2019 13:55 -3,1 C 92 % 1010,3 hPa 0,0 l/m 0,0 km/h (0 Bft) O-SO 123 -4,2 C -3,1 C 1,6 km/h (1 Bft)
22.01.2019 13:50 -3,1 C 92 % 1010,4 hPa 0,0 l/m 0,0 km/h (0 Bft) S-SO 164 -4,2 C -3,1 C 0,0 km/h (0 Bft)
22.01.2019 13:45 -3,0 C 92 % 1010,5 hPa 0,0 l/m 3,9 km/h (1 Bft) S-SO 160 -4,1 C -3,0 C 19,3 km/h (3 Bft)
22.01.2019 13:40 -2,9 C 92 % 1010,6 hPa 0,0 l/m 8,2 km/h (2 Bft) S-SO 163 -4,0 C -4,9 C 16,1 km/h (3 Bft)
22.01.2019 13:35 -2,9 C 92 % 1010,7 hPa 0,0 l/m 15,8 km/h (3 Bft) SO 132 -4,0 C -11,0 C 19,3 km/h (3 Bft)
22.01.2019 13:30 -3,0 C 92 % 1010,7 hPa 0,0 l/m 2,5 km/h (1 Bft) O-SO 118 -4,1 C -3,0 C 17,7 km/h (3 Bft)
22.01.2019 13:25 -3,0 C 93 % 1010,8 hPa 0,0 l/m 0,0 km/h (0 Bft) O-SO 116 -4,0 C -3,0 C 0,0 km/h (0 Bft)
22.01.2019 13:20 -3,0 C 93 % 1010,9 hPa 0,0 l/m 1,3 km/h (1 Bft) O-SO 120 -4,0 C -3,0 C 14,5 km/h (3 Bft)
22.01.2019 13:15 -3,1 C 93 % 1011,0 hPa 0,0 l/m 0,2 km/h (0 Bft) SO 134 -4,1 C -3,1 C 11,3 km/h (2 Bft)
22.01.2019 13:10 -3,1 C 93 % 1011,2 hPa 0,0 l/m 0,0 km/h (0 Bft) SO 143 -4,1 C -3,1 C 1,6 km/h (1 Bft)
22.01.2019 13:05 -3,1 C 93 % 1011,3 hPa 0,0 l/m 2,2 km/h (1 Bft) S-SO 150 -4,1 C -3,1 C 16,1 km/h (3 Bft)
22.01.2019 13:00 -3,2 C 94 % 1011,5 hPa 0,0 l/m 0,0 km/h (0 Bft) O-SO 111 -4,0 C -3,2 C 0,0 km/h (0 Bft)
22.01.2019 12:55 -3,3 C 93 % 1011,5 hPa 0,0 l/m 1,9 km/h (1 Bft) O-SO 119 -4,3 C -3,3 C 14,5 km/h (3 Bft)
22.01.2019 12:50 -3,3 C 94 % 1011,6 hPa 0,0 l/m 1,5 km/h (1 Bft) S-SO 165 -4,1 C -3,3 C 17,7 km/h (3 Bft)
22.01.2019 12:45 -3,3 C 94 % 1011,8 hPa 0,0 l/m 3,8 km/h (1 Bft) S-SO 161 -4,1 C -3,3 C 16,1 km/h (3 Bft)
22.01.2019 12:40 -3,3 C 94 % 1011,9 hPa 0,0 l/m 8,2 km/h (2 Bft) S 175 -4,1 C -5,3 C 19,3 km/h (3 Bft)
22.01.2019 12:35 -3,3 C 94 % 1012,0 hPa 0,0 l/m 4,1 km/h (1 Bft) SO 131 -4,1 C -3,3 C 19,3 km/h (3 Bft)
22.01.2019 12:30 -3,3 C 95 % 1012,0 hPa 0,0 l/m 0,0 km/h (0 Bft) SO 129 -4,0 C -3,3 C 1,6 km/h (1 Bft)
22.01.2019 12:25 -3,4 C 95 % 1012,1 hPa 0,0 l/m 0,0 km/h (0 Bft) S-SO 155 -4,1 C -3,4 C 0,0 km/h (0 Bft)
22.01.2019 12:20 -3,4 C 95 % 1012,3 hPa 0,0 l/m 2,8 km/h (1 Bft) O-SO 109 -4,1 C -3,4 C 16,1 km/h (3 Bft)
22.01.2019 12:15 -3,5 C 95 % 1012,3 hPa 0,0 l/m 0,0 km/h (0 Bft) O-SO 117 -4,2 C -3,5 C 0,0 km/h (0 Bft)
22.01.2019 12:10 -3,5 C 95 % 1012,4 hPa 0,0 l/m 0,0 km/h (0 Bft) O-SO 106 -4,2 C -3,5 C 1,6 km/h (1 Bft)
22.01.2019 12:05 -3,5 C 95 % 1012,6 hPa 0,0 l/m 10,0 km/h (2 Bft) S-SO 149 -4,2 C -7,3 C 17,7 km/h (3 Bft)
22.01.2019 12:00 -3,6 C 95 % 1012,7 hPa 0,0 l/m 0,0 km/h (0 Bft) O-SO 121 -4,3 C -3,6 C 0,0 km/h (0 Bft)
22.01.2019 11:55 -3,6 C 95 % 1012,8 hPa 0,0 l/m 4,1 km/h (1 Bft) O-SO 105 -4,3 C -3,6 C 17,7 km/h (3 Bft)
22.01.2019 11:50 -3,6 C 95 % 1012,9 hPa 0,0 l/m 0,0 km/h (0 Bft) SO 144 -4,3 C -3,6 C 0,0 km/h (0 Bft)
22.01.2019 11:45 -3,7 C 95 % 1013,0 hPa 0,0 l/m 6,9 km/h (2 Bft) S 184 -4,4 C -4,3 C 14,5 km/h (3 Bft)
22.01.2019 11:40 -3,8 C 95 % 1013,1 hPa 0,0 l/m 1,6 km/h (1 Bft) SO 136 -4,5 C -3,8 C 16,1 km/h (3 Bft)
22.01.2019 11:35 -3,8 C 95 % 1013,2 hPa 0,0 l/m 14,5 km/h (3 Bft) SO 126 -4,5 C -11,2 C 20,9 km/h (4 Bft)
22.01.2019 11:30 -3,9 C 95 % 1013,2 hPa 0,0 l/m 6,2 km/h (2 Bft) O-SO 120 -4,6 C -3,9 C 17,7 km/h (3 Bft)
22.01.2019 11:25 -3,9 C 95 % 1013,4 hPa 0,0 l/m 7,9 km/h (2 Bft) S-SO 167 -4,6 C -5,6 C 20,9 km/h (4 Bft)
22.01.2019 11:20 -3,8 C 96 % 1013,5 hPa 0,0 l/m 3,4 km/h (1 Bft) SO 133 -4,3 C -3,8 C 19,3 km/h (3 Bft)
22.01.2019 11:15 -3,9 C 96 % 1013,5 hPa 0,0 l/m 0,0 km/h (0 Bft) O-SO 119 -4,4 C -3,9 C 1,6 km/h (1 Bft)
22.01.2019 11:10 -3,9 C 96 % 1013,6 hPa 0,0 l/m 0,0 km/h (0 Bft) O-SO 118 -4,4 C -3,9 C 1,6 km/h (1 Bft)
22.01.2019 11:05 -4,0 C 96 % 1013,6 hPa 0,0 l/m 3,0 km/h (1 Bft) SO 130 -4,5 C -4,0 C 12,9 km/h (3 Bft)
22.01.2019 11:00 -4,1 C 96 % 1013,6 hPa 0,0 l/m 11,9 km/h (2 Bft) SO 143 -4,6 C -9,6 C 16,1 km/h (3 Bft)
22.01.2019 10:55 -4,1 C 96 % 1013,7 hPa 0,0 l/m 14,2 km/h (3 Bft) SO 126 -4,6 C -11,4 C 20,9 km/h (4 Bft)
22.01.2019 10:50 -4,1 C 96 % 1013,7 hPa 0,0 l/m 5,5 km/h (2 Bft) SO 132 -4,6 C -4,1 C 19,3 km/h (3 Bft)
22.01.2019 10:45 -4,2 C 96 % 1013,8 hPa 0,0 l/m 6,6 km/h (2 Bft) S-SO 148 -4,7 C -4,4 C 14,5 km/h (3 Bft)
22.01.2019 10:40 -4,2 C 96 % 1013,7 hPa 0,0 l/m 11,2 km/h (2 Bft) O-SO 107 -4,7 C -9,2 C 16,1 km/h (3 Bft)
22.01.2019 10:35 -4,3 C 96 % 1013,8 hPa 0,0 l/m 11,9 km/h (2 Bft) SO 140 -4,8 C -9,9 C 16,1 km/h (3 Bft)
22.01.2019 10:30 -4,4 C 96 % 1013,9 hPa 0,0 l/m 10,7 km/h (2 Bft) O-SO 109 -4,9 C -9,0 C 14,5 km/h (3 Bft)
22.01.2019 10:25 -4,5 C 96 % 1013,9 hPa 0,0 l/m 8,9 km/h (2 Bft) SO 130 -5,0 C -7,3 C 16,1 km/h (3 Bft)
22.01.2019 10:20 -4,6 C 96 % 1013,9 hPa 0,0 l/m 7,8 km/h (2 Bft) SO 128 -5,1 C -6,3 C 11,3 km/h (2 Bft)
22.01.2019 10:15 -4,7 C 96 % 1014,0 hPa 0,0 l/m 9,0 km/h (2 Bft) SO 130 -5,2 C -7,7 C 11,3 km/h (2 Bft)
22.01.2019 10:10 -4,9 C 96 % 1014,0 hPa 0,0 l/m 8,9 km/h (2 Bft) O-SO 106 -5,4 C -7,8 C 12,9 km/h (3 Bft)
22.01.2019 10:05 -4,9 C 96 % 1014,1 hPa 0,0 l/m 10,0 km/h (2 Bft) O-SO 104 -5,4 C -8,9 C 12,9 km/h (3 Bft)
22.01.2019 10:00 -5,1 C 96 % 1014,1 hPa 0,0 l/m 8,4 km/h (2 Bft) O 99 -5,6 C -7,4 C 11,3 km/h (2 Bft)
22.01.2019 09:55 -5,2 C 96 % 1014,1 hPa 0,0 l/m 9,1 km/h (2 Bft) O-SO 117 -5,7 C -8,3 C 12,9 km/h (3 Bft)
22.01.2019 09:50 -5,3 C 96 % 1014,2 hPa 0,0 l/m 2,8 km/h (1 Bft) SO 124 -5,8 C -5,3 C 12,9 km/h (3 Bft)
22.01.2019 09:45 -5,5 C 96 % 1014,2 hPa 0,0 l/m 0,0 km/h (0 Bft) O-SO 103 -6,0 C -5,5 C 0,0 km/h (0 Bft)
22.01.2019 09:40 -5,6 C 96 % 1014,2 hPa 0,0 l/m 0,0 km/h (0 Bft) O 100 -6,1 C -5,6 C 0,0 km/h (0 Bft)
22.01.2019 09:35 -5,7 C 96 % 1014,3 hPa 0,0 l/m 0,0 km/h (0 Bft) O-SO 109 -6,2 C -5,7 C 0,0 km/h (0 Bft)
22.01.2019 09:30 -5,8 C 95 % 1014,3 hPa 0,0 l/m 0,0 km/h (0 Bft) SO 132 -6,5 C -5,8 C 0,0 km/h (0 Bft)
22.01.2019 09:25 -5,9 C 96 % 1014,5 hPa 0,0 l/m 0,0 km/h (0 Bft) O-SO 117 -6,4 C -5,9 C 0,0 km/h (0 Bft)
22.01.2019 09:20 -6,1 C 96 % 1014,6 hPa 0,0 l/m 0,0 km/h (0 Bft) SO 140 -6,6 C -6,1 C 0,0 km/h (0 Bft)
22.01.2019 09:15 -6,2 C 95 % 1014,6 hPa 0,0 l/m 0,0 km/h (0 Bft) O-SO 119 -6,9 C -6,2 C 0,0 km/h (0 Bft)
22.01.2019 09:10 -6,3 C 95 % 1014,7 hPa 0,0 l/m 0,0 km/h (0 Bft) O-SO 110 -7,0 C -6,3 C 0,0 km/h (0 Bft)
22.01.2019 09:05 -6,4 C 95 % 1014,7 hPa 0,0 l/m 0,0 km/h (0 Bft) O-SO 113 -7,1 C -6,4 C 0,0 km/h (0 Bft)
22.01.2019 09:00 -6,5 C 95 % 1014,9 hPa 0,0 l/m 0,0 km/h (0 Bft) O-SO 113 -7,2 C -6,5 C 0,0 km/h (0 Bft)
22.01.2019 08:55 -6,6 C 95 % 1014,9 hPa 0,0 l/m 0,0 km/h (0 Bft) O-SO 113 -7,3 C -6,6 C 0,0 km/h (0 Bft)
22.01.2019 08:50 -6,7 C 95 % 1015,0 hPa 0,0 l/m 0,0 km/h (0 Bft) SO 146 -7,4 C -6,7 C 0,0 km/h (0 Bft)
22.01.2019 08:45 -6,7 C 95 % 1015,1 hPa 0,0 l/m 0,0 km/h (0 Bft) S-SO 152 -7,4 C -6,7 C 0,0 km/h (0 Bft)
22.01.2019 08:40 -6,8 C 95 % 1015,0 hPa 0,0 l/m 0,0 km/h (0 Bft) O-NO 72 -7,5 C -6,8 C 0,0 km/h (0 Bft)
22.01.2019 08:35 -6,9 C 95 % 1015,0 hPa 0,0 l/m 0,0 km/h (0 Bft) O-NO 72 -7,6 C -6,9 C 0,0 km/h (0 Bft)
22.01.2019 08:30 -7,0 C 95 % 1015,1 hPa 0,0 l/m 0,0 km/h (0 Bft) O-NO 72 -7,7 C -7,0 C 0,0 km/h (0 Bft)
22.01.2019 08:25 -7,1 C 95 % 1015,1 hPa 0,0 l/m 0,0 km/h (0 Bft) O-NO 72 -7,8 C -7,1 C 0,0 km/h (0 Bft)
22.01.2019 08:20 -7,1 C 95 % 1015,0 hPa 0,0 l/m 0,0 km/h (0 Bft) O-NO 72 -7,8 C -7,1 C 0,0 km/h (0 Bft)
22.01.2019 08:15 -7,1 C 95 % 1015,1 hPa 0,0 l/m 0,0 km/h (0 Bft) O-NO 72 -7,8 C -7,1 C 0,0 km/h (0 Bft)
22.01.2019 08:10 -7,2 C 95 % 1015,1 hPa 0,0 l/m 0,0 km/h (0 Bft) O-NO 72 -7,9 C -7,2 C 0,0 km/h (0 Bft)
22.01.2019 08:05 -7,2 C 95 % 1015,1 hPa 0,0 l/m 0,0 km/h (0 Bft) O-NO 72 -7,9 C -7,2 C 0,0 km/h (0 Bft)
22.01.2019 08:00 -7,3 C 95 % 1015,1 hPa 0,0 l/m 0,0 km/h (0 Bft) O-NO 72 -8,0 C -7,3 C 0,0 km/h (0 Bft)
22.01.2019 07:55 -7,3 C 95 % 1015,1 hPa 0,0 l/m 0,0 km/h (0 Bft) O-NO 72 -8,0 C -7,3 C 0,0 km/h (0 Bft)
22.01.2019 07:50 -7,4 C 95 % 1015,1 hPa 0,0 l/m 0,0 km/h (0 Bft) O-NO 72 -8,1 C -7,4 C 0,0 km/h (0 Bft)
22.01.2019 07:45 -7,4 C 95 % 1015,1 hPa 0,0 l/m 0,0 km/h (0 Bft) NW 314 -8,1 C -7,4 C 0,0 km/h (0 Bft)
22.01.2019 07:40 -7,4 C 95 % 1015,2 hPa 0,0 l/m 0,0 km/h (0 Bft) NW 314 -8,1 C -7,4 C 0,0 km/h (0 Bft)
22.01.2019 07:35 -7,5 C 95 % 1015,2 hPa 0,0 l/m 0,0 km/h (0 Bft) NW 314 -8,2 C -7,5 C 0,0 km/h (0 Bft)
22.01.2019 07:30 -7,5 C 95 % 1015,3 hPa 0,0 l/m 0,0 km/h (0 Bft) NW 314 -8,2 C -7,5 C 0,0 km/h (0 Bft)
22.01.2019 07:25 -7,5 C 95 % 1015,4 hPa 0,0 l/m 0,0 km/h (0 Bft) NW 318 -8,2 C -7,5 C 0,0 km/h (0 Bft)
22.01.2019 07:20 -7,6 C 95 % 1015,4 hPa 0,0 l/m 0,0 km/h (0 Bft) N-NW 327 -8,3 C -7,6 C 0,0 km/h (0 Bft)
22.01.2019 07:15 -7,6 C 95 % 1015,4 hPa 0,0 l/m 0,0 km/h (0 Bft) NW 323 -8,3 C -7,6 C 0,0 km/h (0 Bft)
22.01.2019 07:10 -7,6 C 95 % 1015,4 hPa 0,0 l/m 0,0 km/h (0 Bft) N-NW 331 -8,3 C -7,6 C 0,0 km/h (0 Bft)
22.01.2019 07:05 -7,6 C 95 % 1015,4 hPa 0,0 l/m 0,0 km/h (0 Bft) N-NW 329 -8,3 C -7,6 C 0,0 km/h (0 Bft)
22.01.2019 07:00 -7,6 C 95 % 1015,5 hPa 0,0 l/m 0,0 km/h (0 Bft) N-NW 329 -8,3 C -7,6 C 0,0 km/h (0 Bft)
22.01.2019 06:55 -7,7 C 95 % 1015,4 hPa 0,0 l/m 0,0 km/h (0 Bft) N-NW 329 -8,4 C -7,7 C 0,0 km/h (0 Bft)
22.01.2019 06:50 -7,7 C 94 % 1015,5 hPa 0,0 l/m 0,0 km/h (0 Bft) NW 318 -8,5 C -7,7 C 0,0 km/h (0 Bft)
22.01.2019 06:45 -7,7 C 94 % 1015,5 hPa 0,0 l/m 0,0 km/h (0 Bft) NW 318 -8,5 C -7,7 C 0,0 km/h (0 Bft)
22.01.2019 06:40 -7,7 C 94 % 1015,7 hPa 0,0 l/m 0,0 km/h (0 Bft) NW 318 -8,5 C -7,7 C 0,0 km/h (0 Bft)
22.01.2019 06:35 -7,8 C 94 % 1015,8 hPa 0,0 l/m 0,0 km/h (0 Bft) NW 318 -8,6 C -7,8 C 0,0 km/h (0 Bft)
22.01.2019 06:30 -7,8 C 94 % 1015,8 hPa 0,0 l/m 0,1 km/h (0 Bft) N-NW 330 -8,6 C -7,8 C 3,2 km/h (1 Bft)
22.01.2019 06:25 -7,8 C 94 % 1015,8 hPa 0,0 l/m 0,0 km/h (0 Bft) W 259 -8,6 C -7,8 C 1,6 km/h (1 Bft)
22.01.2019 06:20 -7,7 C 94 % 1015,9 hPa 0,0 l/m 0,0 km/h (0 Bft) W 259 -8,5 C -7,7 C 0,0 km/h (0 Bft)
22.01.2019 06:15 -7,7 C 94 % 1015,9 hPa 0,0 l/m 0,0 km/h (0 Bft) W 259 -8,5 C -7,7 C 0,0 km/h (0 Bft)
22.01.2019 06:10 -7,6 C 94 % 1015,9 hPa 0,0 l/m 0,0 km/h (0 Bft) S-SW 192 -8,4 C -7,6 C 0,0 km/h (0 Bft)
22.01.2019 06:05 -7,6 C 94 % 1015,9 hPa 0,0 l/m 0,0 km/h (0 Bft) S-SW 192 -8,4 C -7,6 C 0,0 km/h (0 Bft)
22.01.2019 06:00 -7,4 C 94 % 1016,0 hPa 0,0 l/m 0,0 km/h (0 Bft) S 177 -8,2 C -7,4 C 0,0 km/h (0 Bft)
22.01.2019 05:55 -7,2 C 94 % 1016,0 hPa 0,0 l/m 0,0 km/h (0 Bft) S 189 -8,0 C -7,2 C 0,0 km/h (0 Bft)
22.01.2019 05:50 -7,2 C 94 % 1016,1 hPa 0,0 l/m 0,1 km/h (0 Bft) S 180 -8,0 C -7,2 C 3,2 km/h (1 Bft)
22.01.2019 05:45 -7,1 C 94 % 1016,1 hPa 0,0 l/m 0,0 km/h (0 Bft) S-SW 213 -7,9 C -7,1 C 0,0 km/h (0 Bft)
22.01.2019 05:40 -7,0 C 94 % 1016,1 hPa 0,0 l/m 0,0 km/h (0 Bft) S-SW 213 -7,8 C -7,0 C 0,0 km/h (0 Bft)
22.01.2019 05:35 -7,0 C 94 % 1016,2 hPa 0,0 l/m 0,0 km/h (0 Bft) SW 218 -7,8 C -7,0 C 0,0 km/h (0 Bft)
22.01.2019 05:30 -6,9 C 94 % 1016,2 hPa 0,0 l/m 0,0 km/h (0 Bft) SW 232 -7,7 C -6,9 C 0,0 km/h (0 Bft)
22.01.2019 05:25 -6,9 C 94 % 1016,3 hPa 0,0 l/m 0,0 km/h (0 Bft) SW 232 -7,7 C -6,9 C 0,0 km/h (0 Bft)
22.01.2019 05:20 -6,9 C 94 % 1016,3 hPa 0,0 l/m 0,0 km/h (0 Bft) SW 229 -7,7 C -6,9 C 0,0 km/h (0 Bft)
22.01.2019 05:15 -6,8 C 94 % 1016,3 hPa 0,0 l/m 0,0 km/h (0 Bft) SW 225 -7,6 C -6,8 C 0,0 km/h (0 Bft)
22.01.2019 05:10 -6,8 C 95 % 1016,4 hPa 0,0 l/m 0,0 km/h (0 Bft) S-SW 204 -7,5 C -6,8 C 0,0 km/h (0 Bft)
22.01.2019 05:05 -6,8 C 95 % 1016,4 hPa 0,0 l/m 0,0 km/h (0 Bft) S-SW 205 -7,5 C -6,8 C 0,0 km/h (0 Bft)
22.01.2019 05:00 -6,8 C 95 % 1016,6 hPa 0,0 l/m 0,0 km/h (0 Bft) SW 218 -7,5 C -6,8 C 0,0 km/h (0 Bft)
_ Min-Zeit 06:35 14:55 04:05 - 04:00 - - 06:35 21:55 04:00
Minimum _ -7,8 C 92 % 1000,8 hPa - 0,0 km/h (0 Bft) - - -8,6 C -15,2 C 0,0 km/h (0 Bft)
_ Max-Zeit 14:20 03:35 05:00 04:05 20:30 - - 13:25 14:20 22:00
Maximum _ -2,9 C 96 % 1016,6 hPa 0,0 l/m 19,7 km/h
O (3 Bft)
- - -4,0 C -2,9 C 25,7 km/h
O-SO (4 Bft)
Durchschnitt _ -5,1 C 95 % 1009,4 hPa #0,0 l/m 4,4 km/h (1 Bft) O-SO - -5,8 C -6,9 C 9,4 km/h (2 Bft)